createdAt,value
2019-01-18T00:02:18.149Z,-3.41
2019-01-18T00:04:47.667Z,-3.41
2019-01-18T00:07:17.186Z,-3.44
2019-01-18T00:09:46.904Z,-3.45
2019-01-18T00:12:16.627Z,-3.50
2019-01-18T00:14:46.484Z,-3.43
2019-01-18T00:17:16.583Z,-3.44
2019-01-18T00:19:46.475Z,-3.39
2019-01-18T00:22:16.368Z,-3.36
2019-01-18T00:24:46.317Z,-3.27
2019-01-18T00:27:16.204Z,-3.20
2019-01-18T00:29:46.087Z,-3.03
2019-01-18T00:32:16.059Z,-2.93
2019-01-18T00:34:45.899Z,-2.97
2019-01-18T00:37:15.853Z,-2.99
2019-01-18T00:39:45.623Z,-2.98
2019-01-18T00:42:15.504Z,-2.95
2019-01-18T00:44:45.398Z,-2.94
2019-01-18T00:47:15.349Z,-3.00
2019-01-18T00:49:45.132Z,-3.09
2019-01-18T00:52:15.085Z,-3.05
2019-01-18T00:54:45.029Z,-4.11
2019-01-18T00:57:17.180Z,-3.02
2019-01-18T00:59:46.933Z,-3.01
2019-01-18T01:02:16.537Z,-3.10
2019-01-18T01:04:46.359Z,-3.00
2019-01-18T01:07:17.880Z,-3.06
2019-01-18T01:09:47.460Z,-3.02
2019-01-18T01:12:17.181Z,-2.82
2019-01-18T01:14:46.914Z,-2.83
2019-01-18T01:17:16.517Z,-2.99
2019-01-18T01:19:46.196Z,-2.94
2019-01-18T01:22:16.232Z,-3.04
2019-01-18T01:24:46.053Z,-3.02
2019-01-18T01:27:15.825Z,-3.05
2019-01-18T01:29:45.608Z,-2.96
2019-01-18T01:32:15.577Z,-2.85
2019-01-18T01:34:45.454Z,-2.86
2019-01-18T01:37:15.437Z,-2.95
2019-01-18T01:39:45.219Z,-2.93
2019-01-18T01:42:15.175Z,-2.94
2019-01-18T01:44:45.376Z,-2.91
2019-01-18T01:47:15.042Z,-2.87
2019-01-18T01:49:44.921Z,-2.77
2019-01-18T01:52:14.602Z,-2.71
2019-01-18T01:54:44.716Z,-2.69
2019-01-18T01:57:14.391Z,-2.83
2019-01-18T01:59:49.850Z,-2.80
2019-01-18T02:02:15.487Z,-2.78
2019-01-18T02:04:45.420Z,-2.75
2019-01-18T02:07:15.187Z,-2.81
2019-01-18T02:09:45.209Z,-2.83
2019-01-18T02:12:15.408Z,-2.77
2019-01-18T02:14:45.413Z,-2.76
2019-01-18T02:17:15.253Z,-2.80
2019-01-18T02:19:45.116Z,-2.78
2019-01-18T02:22:15.156Z,-2.82
2019-01-18T02:24:44.982Z,-2.95
2019-01-18T02:27:14.787Z,-3.02
2019-01-18T02:29:44.625Z,-4.15
2019-01-18T02:32:14.245Z,-3.11
2019-01-18T02:34:43.890Z,-3.04
2019-01-18T02:37:14.662Z,-3.12
2019-01-18T02:39:44.457Z,-3.12
2019-01-18T02:42:14.143Z,-3.04
2019-01-18T02:44:43.886Z,-3.06
2019-01-18T02:47:13.840Z,-3.04
2019-01-18T02:49:43.530Z,-3.05
2019-01-18T02:52:13.471Z,-3.08
2019-01-18T02:54:43.123Z,-3.08
2019-01-18T02:57:12.880Z,-3.00
2019-01-18T02:59:43.078Z,-2.88
2019-01-18T03:02:13.126Z,-2.79
2019-01-18T03:04:42.899Z,-2.69
2019-01-18T03:07:12.825Z,-2.64
2019-01-18T03:09:42.883Z,-2.66
2019-01-18T03:12:12.452Z,-2.62
2019-01-18T03:14:42.294Z,-2.50
2019-01-18T03:17:12.028Z,-2.43
2019-01-18T03:19:41.820Z,-2.42
2019-01-18T03:22:11.385Z,-2.66
2019-01-18T03:24:41.178Z,-2.75
2019-01-18T03:27:10.790Z,-2.74
2019-01-18T03:29:40.400Z,-2.73
2019-01-18T03:32:10.087Z,-2.66
2019-01-18T03:34:39.657Z,-2.67
2019-01-18T03:37:09.278Z,-2.64
2019-01-18T03:39:39.182Z,-2.64
2019-01-18T03:42:08.685Z,-2.65
2019-01-18T03:44:38.310Z,-2.73
2019-01-18T03:47:08.061Z,-2.50
2019-01-18T03:49:37.592Z,-3.09
2019-01-18T03:52:07.252Z,-2.45
2019-01-18T03:54:36.986Z,-2.39
2019-01-18T03:57:06.562Z,-2.55
2019-01-18T03:59:36.119Z,-2.66
2019-01-18T04:02:06.969Z,-2.75
2019-01-18T04:04:36.640Z,-2.87
2019-01-18T04:07:06.333Z,-2.88
2019-01-18T04:09:36.029Z,-2.77
2019-01-18T04:12:05.598Z,-2.73
2019-01-18T04:14:35.152Z,-2.79
2019-01-18T04:17:04.948Z,-2.85
2019-01-18T04:19:34.707Z,-2.87
2019-01-18T04:22:04.521Z,-2.78
2019-01-18T04:24:34.271Z,-2.77
2019-01-18T04:27:03.862Z,-2.85
2019-01-18T04:29:33.458Z,-2.90
2019-01-18T04:32:03.538Z,-2.82
2019-01-18T04:34:33.375Z,-2.84
2019-01-18T04:37:02.972Z,-2.86
2019-01-18T04:39:32.721Z,-2.83
2019-01-18T04:42:02.307Z,-2.90
2019-01-18T04:44:32.010Z,-2.91
2019-01-18T04:47:01.790Z,-2.98
2019-01-18T04:49:31.410Z,-2.93
2019-01-18T04:52:00.887Z,-2.96
2019-01-18T04:54:30.675Z,-2.95
2019-01-18T04:57:00.302Z,-3.01
2019-01-18T04:59:29.955Z,-3.02
2019-01-18T05:01:59.782Z,-2.96
2019-01-18T05:04:29.610Z,-3.03
2019-01-18T05:06:59.419Z,-3.05
2019-01-18T05:09:29.070Z,-2.99
2019-01-18T05:11:58.727Z,-2.91
2019-01-18T05:14:29.378Z,-2.97
2019-01-18T05:16:59.223Z,-3.04
2019-01-18T05:19:29.125Z,-3.11
2019-01-18T05:21:58.861Z,-3.15
2019-01-18T05:24:28.584Z,-3.11
2019-01-18T05:26:58.166Z,-3.09
2019-01-18T05:29:27.766Z,-2.98
2019-01-18T05:31:57.721Z,-2.96
2019-01-18T05:34:27.347Z,-3.08
2019-01-18T05:36:56.958Z,-3.22
2019-01-18T05:39:26.688Z,-3.25
2019-01-18T05:41:56.362Z,-3.24
2019-01-18T05:44:25.908Z,-3.22
2019-01-18T05:46:55.658Z,-3.24
2019-01-18T05:49:25.370Z,-3.25
2019-01-18T05:51:54.899Z,-3.26
2019-01-18T05:54:24.806Z,-3.27
2019-01-18T05:56:54.359Z,-3.27
2019-01-18T05:59:23.881Z,-3.31
2019-01-18T06:01:53.701Z,-3.32
2019-01-18T06:04:23.395Z,-3.40
2019-01-18T06:06:53.312Z,-3.33
2019-01-18T06:09:23.177Z,-3.24
2019-01-18T06:11:52.695Z,-3.30
2019-01-18T06:14:22.454Z,-3.33
2019-01-18T06:16:52.222Z,-3.32
2019-01-18T06:19:21.796Z,-3.13
2019-01-18T06:21:51.470Z,-2.97
2019-01-18T06:24:21.397Z,-3.74
2019-01-18T06:26:50.962Z,-3.15
2019-01-18T06:29:20.610Z,-3.37
2019-01-18T06:31:50.414Z,-3.38
2019-01-18T06:34:20.326Z,-3.40
2019-01-18T06:36:49.998Z,-3.28
2019-01-18T06:39:19.773Z,-3.12
2019-01-18T06:41:52.712Z,-3.04
2019-01-18T06:44:22.785Z,-2.91
2019-01-18T06:46:53.273Z,-2.86
2019-01-18T06:49:22.914Z,-2.81
2019-01-18T06:51:52.595Z,-2.80
2019-01-18T06:54:22.416Z,-3.04
2019-01-18T06:56:52.071Z,-3.23
2019-01-18T06:59:21.841Z,-3.33
2019-01-18T07:01:51.370Z,-3.37
2019-01-18T07:04:20.977Z,-3.31
2019-01-18T07:06:50.763Z,-3.18
2019-01-18T07:09:20.633Z,-3.12
2019-01-18T07:11:50.270Z,-3.13
2019-01-18T07:14:19.877Z,-3.18
2019-01-18T07:16:49.718Z,-3.02
2019-01-18T07:19:19.407Z,-2.92
2019-01-18T07:21:48.960Z,-2.87
2019-01-18T07:24:18.768Z,-2.82
2019-01-18T07:26:48.348Z,-2.86
2019-01-18T07:29:17.916Z,-2.80
2019-01-18T07:31:47.760Z,-2.78
2019-01-18T07:34:17.376Z,-2.85
2019-01-18T07:36:46.900Z,-3.05
2019-01-18T07:39:22.322Z,-3.09
2019-01-18T07:41:48.175Z,-2.96
2019-01-18T07:44:18.026Z,-2.79
2019-01-18T07:46:47.681Z,-2.89
2019-01-18T07:49:17.265Z,-2.92
2019-01-18T07:51:47.104Z,-3.05
2019-01-18T07:54:16.705Z,-3.19
2019-01-18T07:56:46.646Z,-3.36
2019-01-18T07:59:16.729Z,-3.29
2019-01-18T08:01:46.276Z,-3.22
2019-01-18T08:04:16.073Z,-3.05
2019-01-18T08:06:45.947Z,-3.06
2019-01-18T08:09:15.606Z,-3.07
2019-01-18T08:11:45.420Z,-3.10
2019-01-18T08:14:15.191Z,-3.06
2019-01-18T08:16:45.044Z,-3.06
2019-01-18T08:19:14.937Z,-3.08
2019-01-18T08:21:44.890Z,-3.07
2019-01-18T08:24:14.555Z,-3.05
2019-01-18T08:26:44.271Z,-3.06
2019-01-18T08:29:14.328Z,-2.90
2019-01-18T08:31:44.038Z,-3.05
2019-01-18T08:34:13.842Z,-3.10
2019-01-18T08:36:43.626Z,-3.10
2019-01-18T08:39:13.342Z,-3.08
2019-01-18T08:41:43.034Z,-3.10
2019-01-18T08:44:12.994Z,-3.13
2019-01-18T08:46:42.652Z,-3.08
2019-01-18T08:49:12.311Z,-3.01
2019-01-18T08:51:42.248Z,-2.94
2019-01-18T08:54:11.874Z,-2.95
2019-01-18T08:56:41.667Z,-2.87
2019-01-18T08:59:11.561Z,-2.78
2019-01-18T09:01:41.205Z,-2.75
2019-01-18T09:04:10.889Z,-2.73
2019-01-18T09:06:40.685Z,-2.69
2019-01-18T09:09:10.263Z,-2.68
2019-01-18T09:11:40.088Z,-2.68
2019-01-18T09:14:09.767Z,-2.64
2019-01-18T09:16:39.401Z,-2.54
2019-01-18T09:19:09.187Z,-2.35
2019-01-18T09:21:38.784Z,-2.28
2019-01-18T09:24:08.477Z,-2.27
2019-01-18T09:26:38.201Z,-2.23
2019-01-18T09:29:08.047Z,-2.14
2019-01-18T09:31:42.389Z,-2.10
2019-01-18T09:34:09.371Z,-2.01
2019-01-18T09:36:39.163Z,-1.99
2019-01-18T09:39:10.007Z,-1.92
2019-01-18T09:41:39.568Z,-1.86
2019-01-18T09:44:09.320Z,-1.82
2019-01-18T09:46:39.168Z,-1.84
2019-01-18T09:49:08.805Z,-1.83
2019-01-18T09:51:38.427Z,-1.79
2019-01-18T09:54:08.210Z,-1.75
2019-01-18T09:56:37.844Z,-1.73
2019-01-18T09:59:07.682Z,-1.66
2019-01-18T10:01:37.225Z,-1.56
2019-01-18T10:04:06.908Z,-1.51
2019-01-18T10:06:36.793Z,-1.40
2019-01-18T10:09:08.595Z,-1.29
2019-01-18T10:11:38.570Z,-1.14
2019-01-18T10:14:08.292Z,-1.03
2019-01-18T10:16:37.969Z,-0.93
2019-01-18T10:19:07.583Z,-0.85
2019-01-18T10:21:37.407Z,-0.74
2019-01-18T10:24:06.887Z,-0.60
2019-01-18T10:26:36.773Z,-0.53
2019-01-18T10:29:06.538Z,-0.47
2019-01-18T10:31:36.063Z,-0.32
2019-01-18T10:34:06.101Z,-0.23
2019-01-18T10:36:35.826Z,-0.14
2019-01-18T10:39:09.807Z,-0.03
2019-01-18T10:41:39.624Z,0.06
2019-01-18T10:44:09.149Z,0.18
2019-01-18T10:46:38.789Z,0.29
2019-01-18T10:49:08.640Z,0.43
2019-01-18T10:51:38.206Z,0.62
2019-01-18T10:54:07.866Z,0.98
2019-01-18T10:56:37.616Z,1.18
2019-01-18T10:59:07.355Z,1.29
2019-01-18T11:01:37.187Z,1.44
2019-01-18T11:04:06.932Z,1.55
2019-01-18T11:06:36.489Z,1.65
2019-01-18T11:09:09.302Z,1.76
2019-01-18T11:11:38.947Z,1.94
2019-01-18T11:14:08.551Z,2.03
2019-01-18T11:16:38.336Z,2.10
2019-01-18T11:19:07.967Z,2.17
2019-01-18T11:21:37.581Z,2.23
2019-01-18T11:24:07.416Z,2.30
2019-01-18T11:26:37.124Z,2.34
2019-01-18T11:29:06.674Z,2.43
2019-01-18T11:31:36.549Z,2.49
2019-01-18T11:34:06.392Z,2.53
2019-01-18T11:36:36.080Z,2.65
2019-01-18T11:39:06.969Z,2.74
2019-01-18T11:41:36.837Z,2.83
2019-01-18T11:44:06.486Z,2.90
2019-01-18T11:46:36.233Z,2.87
2019-01-18T11:49:05.913Z,2.95
2019-01-18T11:51:35.964Z,3.04
2019-01-18T11:54:05.883Z,3.14
2019-01-18T11:56:35.435Z,3.17
2019-01-18T11:59:05.151Z,3.10
2019-01-18T12:01:34.852Z,3.11
2019-01-18T12:04:04.569Z,3.12
2019-01-18T12:06:34.274Z,3.14
2019-01-18T12:09:05.508Z,3.13
2019-01-18T12:11:35.062Z,3.07
2019-01-18T12:14:04.563Z,3.10
2019-01-18T12:16:34.245Z,3.09
2019-01-18T12:19:03.822Z,3.09
2019-01-18T12:21:37.179Z,3.07
2019-01-18T12:24:05.807Z,3.02
2019-01-18T12:26:35.566Z,3.03
2019-01-18T12:29:05.374Z,3.05
2019-01-18T12:31:35.665Z,3.06
2019-01-18T12:34:05.499Z,3.10
2019-01-18T12:36:35.136Z,3.16
2019-01-18T12:39:08.776Z,3.21
2019-01-18T12:41:38.485Z,3.24
2019-01-18T12:44:08.076Z,3.31
2019-01-18T12:46:37.736Z,3.26
2019-01-18T12:49:07.412Z,3.24
2019-01-18T12:51:38.261Z,3.19
2019-01-18T12:54:08.059Z,3.16
2019-01-18T12:56:37.800Z,3.13
2019-01-18T12:59:07.397Z,3.15
2019-01-18T13:01:37.132Z,3.15
2019-01-18T13:04:08.264Z,3.20
2019-01-18T13:06:38.110Z,2.56
2019-01-18T13:09:08.675Z,3.18
2019-01-18T13:11:38.185Z,3.22
2019-01-18T13:14:07.916Z,3.24
2019-01-18T13:16:40.382Z,3.19
2019-01-18T13:19:21.750Z,3.18
2019-01-18T13:21:51.426Z,3.14
2019-01-18T13:24:20.994Z,3.16
2019-01-18T13:26:50.654Z,3.20
2019-01-18T13:29:20.269Z,3.19
2019-01-18T13:31:49.872Z,3.20
2019-01-18T13:34:19.874Z,3.22
2019-01-18T13:36:49.641Z,3.21
2019-01-18T13:39:19.216Z,3.21
2019-01-18T13:41:49.109Z,3.16
2019-01-18T13:44:18.872Z,3.18
2019-01-18T13:46:48.506Z,3.16
2019-01-18T13:49:18.541Z,3.15
2019-01-18T13:51:48.190Z,3.15
2019-01-18T13:54:17.778Z,3.12
2019-01-18T13:56:47.539Z,3.14
2019-01-18T13:59:17.049Z,3.14
2019-01-18T14:01:46.669Z,3.12
2019-01-18T14:04:16.832Z,3.04
2019-01-18T14:06:46.486Z,3.07
2019-01-18T14:09:16.192Z,3.04
2019-01-18T14:11:46.111Z,3.05
2019-01-18T14:14:16.268Z,3.02
2019-01-18T14:16:46.056Z,3.01
2019-01-18T14:19:15.945Z,3.00
2019-01-18T14:21:45.925Z,3.00
2019-01-18T14:24:15.436Z,3.00
2019-01-18T14:26:45.546Z,3.02
2019-01-18T14:29:15.315Z,2.93
2019-01-18T14:31:45.044Z,2.94
2019-01-18T14:34:14.993Z,2.95
2019-01-18T14:36:44.900Z,2.92
2019-01-18T14:39:14.707Z,2.89
2019-01-18T14:41:44.391Z,2.86
2019-01-18T14:44:14.189Z,2.86
2019-01-18T14:46:43.904Z,2.80
2019-01-18T14:49:14.138Z,2.80
2019-01-18T14:51:43.994Z,2.85
2019-01-18T14:54:13.609Z,2.84
2019-01-18T14:56:43.417Z,2.79
2019-01-18T14:59:13.230Z,2.72
2019-01-18T15:01:42.945Z,2.77
2019-01-18T15:04:12.675Z,2.81
2019-01-18T15:06:42.479Z,2.81
2019-01-18T15:09:12.321Z,2.77
2019-01-18T15:11:41.951Z,2.77
2019-01-18T15:14:11.770Z,2.77
2019-01-18T15:16:41.413Z,2.72
2019-01-18T15:19:11.239Z,2.73
2019-01-18T15:21:41.050Z,2.69
2019-01-18T15:24:10.667Z,2.68
2019-01-18T15:26:40.376Z,2.67
2019-01-18T15:29:10.492Z,2.60
2019-01-18T15:31:40.165Z,2.56
2019-01-18T15:34:09.756Z,2.59
2019-01-18T15:36:39.525Z,2.55
2019-01-18T15:39:12.294Z,1.62
2019-01-18T15:41:42.791Z,2.54
2019-01-18T15:44:12.425Z,2.50
2019-01-18T15:46:42.054Z,2.43
2019-01-18T15:49:12.191Z,2.45
2019-01-18T15:51:41.760Z,2.47
2019-01-18T15:54:11.369Z,2.46
2019-01-18T15:56:41.294Z,2.46
2019-01-18T15:59:10.959Z,2.48
2019-01-18T16:01:40.596Z,2.39
2019-01-18T16:04:10.421Z,1.45
2019-01-18T16:06:40.214Z,2.38
2019-01-18T16:09:10.214Z,2.39
2019-01-18T16:11:40.367Z,2.37
2019-01-18T16:14:10.148Z,2.38
2019-01-18T16:16:47.344Z,2.40
2019-01-18T16:19:17.066Z,2.41
2019-01-18T16:21:46.570Z,2.40
2019-01-18T16:24:16.399Z,2.38
2019-01-18T16:26:46.118Z,2.38
2019-01-18T16:29:15.823Z,2.39
2019-01-18T16:31:45.597Z,2.41
2019-01-18T16:34:15.302Z,2.41
2019-01-18T16:36:45.025Z,2.39
2019-01-18T16:39:15.009Z,2.41
2019-01-18T16:41:44.955Z,2.34
2019-01-18T16:44:14.767Z,2.26
2019-01-18T16:46:44.624Z,2.25
2019-01-18T16:49:14.239Z,2.13
2019-01-18T16:51:43.935Z,1.96
2019-01-18T16:54:14.127Z,1.86
2019-01-18T16:56:43.891Z,1.78
2019-01-18T16:59:13.521Z,0.76
2019-01-18T17:01:43.547Z,1.66
2019-01-18T17:04:13.160Z,1.58
2019-01-18T17:06:42.828Z,1.52
2019-01-18T17:09:13.167Z,1.48
2019-01-18T17:11:42.955Z,1.43
2019-01-18T17:14:12.743Z,1.37
2019-01-18T17:16:45.087Z,1.28
2019-01-18T17:19:14.282Z,1.26
2019-01-18T17:21:44.399Z,1.20
2019-01-18T17:24:14.251Z,1.10
2019-01-18T17:26:43.992Z,1.05
2019-01-18T17:29:13.777Z,1.08
2019-01-18T17:31:43.291Z,1.06
2019-01-18T17:34:13.059Z,1.00
2019-01-18T17:36:54.860Z,0.94
2019-01-18T17:39:49.587Z,0.93
2019-01-18T17:42:49.813Z,0.90
2019-01-18T17:46:00.456Z,0.85
2019-01-18T17:49:05.254Z,0.84
2019-01-18T17:52:02.227Z,0.81
2019-01-18T17:55:05.971Z,0.76
2019-01-18T17:58:22.270Z,0.73
2019-01-18T18:01:33.219Z,0.76
2019-01-18T18:04:46.629Z,0.70
2019-01-18T18:07:44.630Z,0.63
2019-01-18T18:10:24.868Z,0.51
2019-01-18T18:13:47.987Z,0.50
2019-01-18T18:17:01.480Z,0.45
2019-01-18T18:20:16.790Z,0.40
2019-01-18T18:23:16.333Z,0.39
2019-01-18T18:26:06.890Z,0.45
2019-01-18T18:29:20.221Z,0.37
2019-01-18T18:32:37.424Z,0.39
2019-01-18T18:35:32.879Z,0.37
2019-01-18T18:38:59.275Z,0.37
2019-01-18T18:42:28.409Z,0.29
2019-01-18T18:45:33.254Z,0.38
2019-01-18T18:48:55.207Z,0.36
2019-01-18T18:51:54.083Z,0.40
2019-01-18T18:55:00.284Z,0.36
2019-01-18T18:58:09.478Z,0.43
2019-01-18T19:01:20.612Z,0.44
2019-01-18T19:04:42.936Z,0.51
2019-01-18T19:07:56.540Z,0.53
2019-01-18T19:11:24.916Z,0.47
2019-01-18T19:14:35.424Z,0.42
2019-01-18T19:17:27.020Z,0.47
2019-01-18T19:20:42.288Z,0.46
2019-01-18T19:23:58.638Z,0.40
2019-01-18T19:27:01.664Z,0.09
2019-01-18T19:30:00.704Z,-0.08
2019-01-18T19:33:26.164Z,-0.08
2019-01-18T19:36:32.347Z,-0.17
2019-01-18T19:39:38.707Z,-0.18
2019-01-18T19:42:51.220Z,-0.31
2019-01-18T19:45:46.613Z,-0.41
2019-01-18T19:48:37.675Z,-0.45
2019-01-18T19:51:52.779Z,-0.45
2019-01-18T19:54:55.885Z,-0.33
2019-01-18T19:57:57.576Z,-0.27
2019-01-18T20:01:01.993Z,-0.20
2019-01-18T20:03:56.747Z,-0.30
2019-01-18T20:07:18.327Z,-0.47
2019-01-18T20:10:27.025Z,-0.59
2019-01-18T20:13:49.345Z,-0.69
2019-01-18T20:17:02.850Z,-0.73
2019-01-18T20:20:28.463Z,-0.71
2019-01-18T20:23:56.769Z,-0.72
2019-01-18T20:26:58.185Z,-0.61
2019-01-18T20:29:51.006Z,-0.59
2019-01-18T20:32:51.408Z,-0.61
2019-01-18T20:35:46.721Z,-0.74
2019-01-18T20:39:18.502Z,-0.84
2019-01-18T20:42:37.689Z,-0.94
2019-01-18T20:46:06.216Z,-0.92
2019-01-18T20:49:28.828Z,-0.92
2019-01-18T20:52:35.734Z,-0.87
2019-01-18T20:55:31.957Z,-0.91
2019-01-18T20:58:33.213Z,-0.95
2019-01-18T21:01:29.572Z,-0.95
2019-01-18T21:04:42.940Z,-0.97
2019-01-18T21:07:19.731Z,-1.04
2019-01-18T21:10:38.167Z,-1.19
2019-01-18T21:13:50.032Z,-1.25
2019-01-18T21:16:55.421Z,-1.36
2019-01-18T21:20:04.518Z,-1.33
2019-01-18T21:23:26.758Z,-1.25
2019-01-18T21:26:46.412Z,-1.11
2019-01-18T21:30:05.506Z,-2.10
2019-01-18T21:32:50.660Z,-1.05
2019-01-18T21:35:52.345Z,-0.98
2019-01-18T21:39:07.835Z,-0.84
2019-01-18T21:42:21.452Z,-0.99
2019-01-18T21:45:31.006Z,-1.15
2019-01-18T21:48:38.169Z,-1.23
2019-01-18T21:51:27.648Z,-1.29
2019-01-18T21:54:20.449Z,-1.31
2019-01-18T21:57:52.588Z,-1.30
2019-01-18T22:00:51.066Z,-1.08
2019-01-18T22:03:53.974Z,-1.09
2019-01-18T22:06:52.375Z,-1.14
2019-01-18T22:09:39.888Z,-1.09
2019-01-18T22:12:39.491Z,-1.29
2019-01-18T22:15:50.023Z,-1.43
2019-01-18T22:18:43.558Z,-1.42
2019-01-18T22:21:43.372Z,-1.44
2019-01-18T22:24:23.120Z,-1.31
2019-01-18T22:27:26.669Z,-1.44
2019-01-18T22:30:48.768Z,-1.36
2019-01-18T22:34:01.967Z,-1.45
2019-01-18T22:37:10.068Z,-1.47
2019-01-18T22:40:32.631Z,-1.36
2019-01-18T22:43:41.886Z,-1.49
2019-01-18T22:46:57.256Z,-1.56
2019-01-18T22:50:03.997Z,-1.47
2019-01-18T22:52:49.956Z,-1.27
2019-01-18T22:55:27.658Z,-1.46
2019-01-18T22:58:27.979Z,-1.61
2019-01-18T23:01:30.480Z,-1.73
2019-01-18T23:04:41.106Z,-1.82
2019-01-18T23:08:06.116Z,-1.81
2019-01-18T23:11:09.328Z,-1.79
2019-01-18T23:14:34.818Z,-1.71
2019-01-18T23:17:41.962Z,-1.64
2019-01-18T23:20:55.614Z,-1.53
2019-01-18T23:23:43.053Z,-1.62
2019-01-18T23:26:48.887Z,-1.57
2019-01-18T23:29:33.150Z,-1.47
2019-01-18T23:32:21.378Z,-1.64
2019-01-18T23:35:23.262Z,-1.61
2019-01-18T23:38:29.536Z,-1.57
2019-01-18T23:41:52.185Z,-1.55
2019-01-18T23:44:59.711Z,-1.58
2019-01-18T23:47:58.174Z,-1.57
2019-01-18T23:50:54.751Z,-1.46
2019-01-18T23:54:11.535Z,-1.50
2019-01-18T23:57:39.907Z,-1.77
